Time;durP1;ratioP1;P1;durP2;ratioP2;P2;SDS_P1;SDS_P2;PMS_P1;PMS_P2;Temp;Humidity;BMP_temperature;BMP_pressure;BME280_temperature;BME280_humidity;BME280_pressure;Samples;Min_cycle;Max_cycle;Signal;HPM_P1;HPM_P2
2022/02/24 00:04:42;;;;;;;3.05;1.25;;;17.70;60.30;;;;;;10412474;28;20104;-59
2022/02/24 00:09:43;;;;;;;3.03;1.45;;;17.70;60.40;;;;;;10411375;28;20466;-59
2022/02/24 00:14:44;;;;;;;3.58;1.33;;;17.70;60.40;;;;;;10411255;28;20508;-60
2022/02/24 00:19:45;;;;;;;2.60;1.05;;;17.80;60.30;;;;;;10412444;28;20124;-59
2022/02/24 00:24:45;;;;;;;3.08;1.20;;;17.70;60.30;;;;;;10399530;28;20029;-59
2022/02/24 00:29:46;;;;;;;4.15;1.70;;;17.70;60.30;;;;;;10418641;28;20419;-59
2022/02/24 00:34:47;;;;;;;2.75;1.15;;;17.80;60.10;;;;;;10419500;28;20052;-60
2022/02/24 00:39:48;;;;;;;2.75;1.42;;;17.70;60.20;;;;;;10418466;28;20083;-59
2022/02/24 00:44:48;;;;;;;5.10;1.75;;;17.70;60.00;;;;;;10417834;28;20037;-58
2022/02/24 00:49:49;;;;;;;2.67;1.25;;;17.80;59.90;;;;;;10404787;28;20040;-60
2022/02/24 00:54:50;;;;;;;3.47;1.20;;;17.70;59.90;;;;;;10418990;28;20037;-59
2022/02/24 00:59:51;;;;;;;2.83;1.48;;;17.70;60.00;;;;;;10420030;28;20033;-59
2022/02/24 01:04:52;;;;;;;3.30;1.48;;;17.70;59.80;;;;;;10426489;28;20482;-59
2022/02/24 01:09:53;;;;;;;2.78;1.23;;;17.80;59.60;;;;;;10417181;28;20068;-60
2022/02/24 01:14:54;;;;;;;2.78;1.30;;;17.80;59.60;;;;;;10418221;28;20034;-59
2022/02/24 01:19:55;;;;;;;3.25;1.45;;;17.80;60.20;;;;;;10433514;28;20037;-59
2022/02/24 01:24:55;;;;;;;3.75;1.25;;;17.70;59.70;;;;;;10417565;28;20037;-59
2022/02/24 01:29:57;;;;;;;3.38;1.38;;;17.70;59.50;;;;;;10390064;28;20029;-59
2022/02/24 01:35:00;;;;;;;2.75;1.35;;;17.80;59.50;;;;;;10431594;28;20198;-59
2022/02/24 01:40:01;;;;;;;2.60;1.27;;;17.80;59.50;;;;;;10415629;28;20378;-59
2022/02/24 01:45:03;;;;;;;3.50;1.30;;;17.80;59.60;;;;;;10427799;28;20029;-59
2022/02/24 01:50:06;;;;;;;4.07;1.30;;;17.80;59.70;;;;;;10418902;28;20469;-58
2022/02/24 01:55:08;;;;;;;3.97;1.30;;;17.80;59.50;;;;;;10415157;28;20770;-59
2022/02/24 02:00:10;;;;;;;2.60;1.30;;;17.80;59.60;;;;;;10420475;28;20083;-59
2022/02/24 02:05:11;;;;;;;2.13;1.10;;;17.80;59.40;;;;;;10420605;28;20044;-60
2022/02/24 02:10:11;;;;;;;3.58;1.08;;;17.80;59.40;;;;;;10418127;28;20100;-59
2022/02/24 02:15:13;;;;;;;4.18;1.75;;;17.90;59.50;;;;;;10430924;28;20034;-59
2022/02/24 02:20:14;;;;;;;3.72;1.10;;;17.90;59.50;;;;;;10398118;28;20021;-60
2022/02/24 02:25:19;;;;;;;1.90;1.05;;;17.80;59.50;;;;;;10414076;28;20038;-60
2022/02/24 02:30:21;;;;;;;2.70;1.50;;;17.80;59.50;;;;;;10414957;28;20401;-61
2022/02/24 02:35:22;;;;;;;2.85;1.42;;;17.80;59.60;;;;;;10413949;28;20053;-60
2022/02/24 02:40:23;;;;;;;2.08;1.20;;;17.80;59.70;;;;;;10430039;28;20021;-60
2022/02/24 02:45:24;;;;;;;2.75;1.40;;;17.90;59.50;;;;;;10413462;28;20048;-59
2022/02/24 02:50:25;;;;;;;3.08;1.30;;;17.80;59.50;;;;;;10412484;28;20060;-59
2022/02/24 02:55:26;;;;;;;3.38;1.17;;;17.80;59.50;;;;;;10412732;28;20516;-59
2022/02/24 03:00:27;;;;;;;2.85;1.38;;;17.80;59.40;;;;;;10421786;28;20024;-60
2022/02/24 03:05:27;;;;;;;3.47;1.85;;;17.80;59.50;;;;;;10417389;28;20040;-59
2022/02/24 03:10:28;;;;;;;3.05;1.00;;;17.80;59.40;;;;;;10412434;28;20021;-60
2022/02/24 03:15:29;;;;;;;3.30;1.38;;;17.70;59.60;;;;;;10413725;28;20029;-59
2022/02/24 03:20:32;;;;;;;2.22;1.25;;;17.80;59.50;;;;;;10412517;28;20151;-60
2022/02/24 03:25:34;;;;;;;3.38;1.40;;;17.80;59.30;;;;;;10427635;28;20374;-59
2022/02/24 03:30:37;;;;;;;2.22;1.00;;;17.80;59.40;;;;;;10412177;28;20378;-59
2022/02/24 03:35:43;;;;;;;2.40;1.10;;;17.80;59.20;;;;;;10411751;28;20077;-59
2022/02/24 03:40:43;;;;;;;2.20;1.08;;;17.80;59.20;;;;;;10411862;28;20033;-60
2022/02/24 03:45:44;;;;;;;1.88;1.10;;;17.90;59.40;;;;;;10411558;28;20095;-59
2022/02/24 03:50:45;;;;;;;4.18;1.20;;;17.80;59.10;;;;;;10413097;28;20481;-59
2022/02/24 03:55:46;;;;;;;2.45;1.20;;;17.90;59.10;;;;;;10411465;28;20703;-59
2022/02/24 04:00:46;;;;;;;3.40;1.10;;;17.80;59.10;;;;;;10406697;28;20380;-59
2022/02/24 04:05:47;;;;;;;2.75;1.25;;;17.80;59.30;;;;;;10421675;28;20041;-59
2022/02/24 04:10:48;;;;;;;2.70;1.30;;;17.70;59.30;;;;;;10419415;28;20057;-60
2022/02/24 04:15:49;;;;;;;4.15;1.08;;;17.80;59.30;;;;;;10435748;28;20057;-60
2022/02/24 04:20:50;;;;;;;2.95;1.25;;;17.90;59.20;;;;;;10420375;28;20040;-60
2022/02/24 04:25:51;;;;;;;3.80;1.60;;;17.80;59.20;;;;;;10418781;28;20128;-60
2022/02/24 04:30:51;;;;;;;1.98;1.00;;;17.90;59.10;;;;;;10419904;28;20043;-60
2022/02/24 04:35:52;;;;;;;3.22;1.20;;;17.80;59.10;;;;;;10418082;28;20064;-60
2022/02/24 04:40:53;;;;;;;3.17;1.65;;;17.80;59.00;;;;;;10418371;28;20025;-60
2022/02/24 04:45:54;;;;;;;2.75;1.45;;;17.80;59.10;;;;;;10418068;28;20099;-60
2022/02/24 04:50:56;;;;;;;2.28;1.00;;;17.70;59.20;;;;;;10419759;28;20529;-59
2022/02/24 04:55:57;;;;;;;3.25;1.40;;;17.80;59.00;;;;;;10417545;28;20044;-60
2022/02/24 05:00:57;;;;;;;1.85;1.10;;;17.80;59.00;;;;;;10421238;28;20033;-61
2022/02/24 05:05:58;;;;;;;3.25;1.27;;;17.80;59.10;;;;;;10434037;28;20038;-60
2022/02/24 05:10:59;;;;;;;2.28;1.52;;;17.80;58.90;;;;;;10432047;28;20116;-60
2022/02/24 05:15:59;;;;;;;2.95;1.05;;;17.80;58.90;;;;;;10416958;28;20021;-59
2022/02/24 05:21:00;;;;;;;3.30;1.08;;;17.80;59.00;;;;;;10433213;28;20029;-60
2022/02/24 05:26:01;;;;;;;2.30;1.20;;;17.90;58.80;;;;;;10415981;28;20036;-59
2022/02/24 05:31:01;;;;;;;3.33;1.15;;;17.80;58.90;;;;;;10411310;28;20542;-60
2022/02/24 05:36:04;;;;;;;2.90;1.20;;;17.80;58.90;;;;;;10410999;28;20171;-59
2022/02/24 05:41:05;;;;;;;2.33;1.20;;;17.90;59.00;;;;;;10422022;28;20041;-60
2022/02/24 05:46:05;;;;;;;4.15;1.38;;;17.80;59.10;;;;;;10414705;28;20030;-60
2022/02/24 05:51:06;;;;;;;3.20;1.35;;;17.80;59.00;;;;;;10414480;28;20032;-60
2022/02/24 05:56:07;;;;;;;3.58;2.03;;;17.90;59.10;;;;;;10415999;28;20104;-59
2022/02/24 06:01:09;;;;;;;3.08;1.30;;;17.80;59.20;;;;;;10423590;28;20041;-59
2022/02/24 06:06:10;;;;;;;5.95;1.70;;;17.90;59.00;;;;;;10398702;28;20025;-59
2022/02/24 06:11:10;;;;;;;3.20;1.40;;;17.90;59.40;;;;;;10413822;28;20029;-59
2022/02/24 06:16:11;;;;;;;3.30;1.70;;;17.90;59.50;;;;;;10412605;28;20030;-59
2022/02/24 06:21:12;;;;;;;2.78;1.48;;;17.80;59.60;;;;;;10413796;28;20139;-59
2022/02/24 06:26:14;;;;;;;4.18;1.55;;;17.80;59.80;;;;;;10413409;28;20112;-61
2022/02/24 06:31:15;;;;;;;4.30;1.45;;;18.00;59.80;;;;;;10412677;28;20033;-59
2022/02/24 06:36:16;;;;;;;6.10;1.80;;;18.00;60.70;;;;;;10413523;28;20064;-60
2022/02/24 06:41:18;;;;;;;9.55;1.60;;;17.90;61.90;;;;;;10412941;28;20038;-60
2022/02/24 06:46:19;;;;;;;7.80;2.05;;;18.00;62.30;;;;;;10405855;28;20026;-60
2022/02/24 06:51:20;;;;;;;9.98;2.38;;;17.90;62.00;;;;;;10413231;28;20022;-60
2022/02/24 06:56:20;;;;;;;8.45;1.77;;;17.90;62.40;;;;;;10411813;28;20033;-59
2022/02/24 07:01:21;;;;;;;9.50;2.05;;;17.90;62.90;;;;;;10424945;28;20037;-56
2022/02/24 07:06:22;;;;;;;10.25;2.78;;;17.90;62.80;;;;;;10410327;28;20030;-60
2022/02/24 07:11:23;;;;;;;8.55;2.08;;;17.80;63.50;;;;;;10416072;28;20036;-59
2022/02/24 07:16:24;;;;;;;6.63;2.25;;;17.70;62.90;;;;;;10413759;28;20112;-58
2022/02/24 07:21:25;;;;;;;8.73;2.42;;;17.70;62.90;;;;;;10395604;28;20029;-58
2022/02/24 07:26:26;;;;;;;11.75;2.67;;;17.70;63.20;;;;;;10410867;28;20432;-60
2022/02/24 07:31:26;;;;;;;8.23;2.05;;;17.60;63.50;;;;;;10411016;28;20501;-59
2022/02/24 07:36:27;;;;;;;30.05;4.03;;;17.60;63.70;;;;;;10408491;28;20038;-59
2022/02/24 07:41:28;;;;;;;10.70;2.67;;;17.50;64.00;;;;;;10395627;28;20083;-60
2022/02/24 07:46:28;;;;;;;9.23;2.20;;;17.50;64.40;;;;;;10426436;28;20033;-62
2022/02/24 07:51:29;;;;;;;9.30;2.63;;;17.50;64.00;;;;;;10419197;28;20049;-59
2022/02/24 07:56:30;;;;;;;12.27;2.65;;;17.40;64.60;;;;;;10411684;28;20120;-62
2022/02/24 08:01:31;;;;;;;19.27;3.13;;;17.40;64.50;;;;;;10411802;28;20053;-60
2022/02/24 08:06:31;;;;;;;8.45;3.03;;;17.50;64.60;;;;;;10413056;28;20120;-59
2022/02/24 08:11:33;;;;;;;9.55;2.38;;;17.50;64.80;;;;;;10396776;28;20026;-60
2022/02/24 08:16:34;;;;;;;14.02;3.03;;;17.40;64.80;;;;;;10402123;28;20025;-64
2022/02/24 08:21:34;;;;;;;14.45;3.60;;;17.40;64.70;;;;;;10383475;28;20037;-63
2022/02/24 08:26:35;;;;;;;15.30;3.53;;;17.40;64.90;;;;;;10400567;28;20108;-61
2022/02/24 08:31:36;;;;;;;13.73;2.50;;;17.40;64.90;;;;;;10398038;28;20038;-63
2022/02/24 08:36:37;;;;;;;16.05;2.75;;;17.30;64.80;;;;;;10401828;28;20060;-62
2022/02/24 08:41:40;;;;;;;11.98;3.30;;;17.50;65.40;;;;;;10401092;28;20043;-64
2022/02/24 08:46:42;;;;;;;13.90;3.20;;;17.50;64.50;;;;;;10404989;28;20466;-61
2022/02/24 08:51:43;;;;;;;10.85;2.45;;;17.60;64.30;;;;;;10408703;28;20057;-61
2022/02/24 08:56:44;;;;;;;24.27;3.03;;;17.50;64.60;;;;;;10405344;28;20037;-59
2022/02/24 09:01:45;;;;;;;16.58;3.05;;;17.40;64.70;;;;;;10403420;28;20078;-63
2022/02/24 09:06:46;;;;;;;9.60;2.63;;;17.40;64.50;;;;;;10405913;28;20091;-61
2022/02/24 09:11:46;;;;;;;14.27;2.90;;;17.30;64.30;;;;;;10400860;28;20087;-60
2022/02/24 09:16:47;;;;;;;6.60;2.50;;;17.30;63.80;;;;;;10402774;28;20033;-62
2022/02/24 09:21:48;;;;;;;9.65;2.33;;;17.40;63.20;;;;;;10406568;28;20508;-60
2022/02/24 09:26:49;;;;;;;9.20;3.17;;;17.50;62.70;;;;;;10405494;28;20112;-61
2022/02/24 09:31:50;;;;;;;9.43;2.28;;;17.50;62.50;;;;;;10404393;28;20029;-61
2022/02/24 09:36:51;;;;;;;12.93;2.20;;;17.50;62.40;;;;;;10404903;28;20069;-60
2022/02/24 09:41:52;;;;;;;5.85;2.10;;;17.60;62.20;;;;;;10406480;28;20037;-60
2022/02/24 09:46:55;;;;;;;8.88;2.65;;;17.60;61.80;;;;;;10388212;28;20500;-60
2022/02/24 09:51:56;;;;;;;4.97;1.63;;;17.60;61.70;;;;;;10405473;28;20049;-60
2022/02/24 09:56:57;;;;;;;8.75;1.92;;;17.60;61.70;;;;;;10406278;28;20038;-60
2022/02/24 10:02:00;;;;;;;5.80;1.92;;;17.70;61.60;;;;;;10404864;28;20175;-60
2022/02/24 10:07:01;;;;;;;8.88;2.28;;;17.70;61.50;;;;;;10404136;28;20509;-60
2022/02/24 10:12:09;;;;;;;5.15;2.22;;;17.60;61.50;;;;;;10404664;28;20021;-60
2022/02/24 10:17:10;;;;;;;7.05;2.45;;;17.50;61.40;;;;;;10421215;28;20038;-60
2022/02/24 10:22:25;;;;;;;6.50;2.05;;;17.60;61.30;;;;;;10407011;28;20120;-59
2022/02/24 10:27:31;;;;;;;4.28;2.22;;;17.60;61.40;;;;;;10405851;28;20088;-60
2022/02/24 10:32:39;;;;;;;7.15;2.58;;;17.50;61.90;;;;;;10404498;28;20033;-60
2022/02/24 10:37:40;;;;;;;10.68;2.15;;;17.40;62.80;;;;;;10401591;28;20094;-58
2022/02/24 10:42:41;;;;;;;8.45;2.15;;;17.50;62.80;;;;;;10404840;28;20441;-61
2022/02/24 10:47:57;;;;;;;16.15;3.13;;;17.50;62.90;;;;;;10387220;28;20374;-61
2022/02/24 10:53:30;;;;;;;11.15;2.90;;;17.50;63.30;;;;;;10403493;28;20385;-61
2022/02/24 10:58:40;;;;;;;10.18;2.40;;;17.60;63.10;;;;;;10403713;28;20632;-59
2022/02/24 11:03:45;;;;;;;11.00;2.75;;;17.60;62.90;;;;;;10417548;28;20132;-60
2022/02/24 11:08:46;;;;;;;13.55;2.50;;;17.60;62.90;;;;;;10405110;28;20037;-59
2022/02/24 11:13:49;;;;;;;7.45;2.05;;;17.70;62.70;;;;;;10386930;28;20056;-59
2022/02/24 11:18:52;;;;;;;8.23;2.60;;;17.70;62.30;;;;;;10403415;28;20436;-60
2022/02/24 11:23:55;;;;;;;11.60;2.50;;;17.70;62.10;;;;;;10400415;28;20032;-60
2022/02/24 11:29:15;;;;;;;6.97;2.83;;;17.80;62.50;;;;;;10401499;28;20450;-61
2022/02/24 11:34:16;;;;;;;6.75;2.58;;;17.70;61.80;;;;;;10402868;28;20053;-59
2022/02/24 11:39:18;;;;;;;7.32;2.50;;;17.70;61.90;;;;;;10418788;28;20018;-60
2022/02/24 11:44:41;;;;;;;13.05;3.58;;;17.60;62.60;;;;;;10400147;28;20053;-60
2022/02/24 11:49:53;;;;;;;7.47;2.50;;;17.50;62.10;;;;;;10403176;28;20087;-59
2022/02/24 11:54:57;;;;;;;5.18;1.85;;;17.50;62.20;;;;;;10402443;28;20052;-60
2022/02/24 12:00:16;;;;;;;5.70;1.60;;;17.40;62.30;;;;;;10403546;28;20041;-60
2022/02/24 12:05:22;;;;;;;7.00;2.03;;;17.40;62.20;;;;;;10401040;28;20094;-61
2022/02/24 12:10:43;;;;;;;4.80;2.15;;;17.40;62.30;;;;;;10401677;28;20478;-60
2022/02/24 12:16:20;;;;;;;6.57;2.25;;;17.50;62.10;;;;;;10402608;28;20063;-60
2022/02/24 12:21:40;;;;;;;6.80;2.22;;;17.50;61.80;;;;;;10404270;28;20033;-60
2022/02/24 12:26:50;;;;;;;4.70;2.08;;;17.60;61.80;;;;;;10408119;28;20092;-60
2022/02/24 12:31:59;;;;;;;8.90;2.10;;;17.50;61.80;;;;;;10408819;28;20033;-60
2022/02/24 12:37:13;;;;;;;4.87;2.27;;;17.40;62.10;;;;;;10407925;28;20049;-58
2022/02/24 12:42:14;;;;;;;24.65;4.93;;;17.30;62.20;;;;;;10393204;28;20041;-59
2022/02/24 12:47:14;;;;;;;16.08;3.15;;;17.30;62.80;;;;;;10410690;28;20068;-59
2022/02/24 12:52:21;;;;;;;19.92;3.95;;;17.40;63.60;;;;;;10409583;28;20038;-59
2022/02/24 12:57:24;;;;;;;15.27;3.95;;;17.50;64.20;;;;;;10409148;28;20377;-58
2022/02/24 13:02:25;;;;;;;14.95;3.55;;;17.50;64.40;;;;;;10409381;28;20030;-59
2022/02/24 13:12:46;;;;;;;10.67;2.73;;;17.40;64.50;;;;;;10408003;28;20037;-61
2022/02/24 13:17:48;;;;;;;12.75;3.05;;;17.40;64.50;;;;;;10406373;28;20038;-60
2022/02/24 13:22:50;;;;;;;10.63;3.03;;;17.40;64.70;;;;;;10406832;28;20116;-59
2022/02/24 13:27:50;;;;;;;12.93;3.38;;;17.30;65.10;;;;;;10402386;28;20679;-59
2022/02/24 13:32:51;;;;;;;10.43;3.03;;;17.30;65.00;;;;;;10403602;28;20091;-60
2022/02/24 13:37:52;;;;;;;16.70;3.83;;;17.20;65.40;;;;;;10404302;28;20053;-60
2022/02/24 13:43:06;;;;;;;15.75;3.08;;;17.20;65.60;;;;;;10389892;28;20040;-58
2022/02/24 13:48:12;;;;;;;20.35;3.88;;;17.10;65.70;;;;;;10405700;28;20033;-59
2022/02/24 13:53:25;;;;;;;14.85;2.97;;;17.20;65.70;;;;;;10406717;28;20083;-62
2022/02/24 13:58:33;;;;;;;13.65;3.00;;;17.20;65.60;;;;;;10405556;28;20083;-59
2022/02/24 14:03:40;;;;;;;16.45;2.88;;;17.20;66.20;;;;;;10405437;28;20036;-60
2022/02/24 14:08:55;;;;;;;12.88;2.47;;;17.20;65.40;;;;;;10404324;28;20120;-60
2022/02/24 14:13:59;;;;;;;21.90;3.55;;;17.20;65.50;;;;;;10404094;28;20018;-60
2022/02/24 14:19:00;;;;;;;14.88;3.13;;;17.20;65.50;;;;;;10403474;28;20041;-62
2022/02/24 14:24:00;;;;;;;19.50;4.22;;;17.20;65.50;;;;;;10405301;28;20109;-59
2022/02/24 14:29:01;;;;;;;12.63;2.70;;;17.20;64.80;;;;;;10420284;28;20041;-61
2022/02/24 14:34:02;;;;;;;17.88;2.92;;;17.20;63.90;;;;;;10405363;28;20495;-59
2022/02/24 14:39:02;;;;;;;10.93;2.35;;;17.20;64.20;;;;;;10402953;28;20022;-58
2022/02/24 14:44:04;;;;;;;10.23;2.33;;;17.20;64.70;;;;;;10403918;28;20041;-61
2022/02/24 14:49:04;;;;;;;18.10;3.45;;;17.30;64.60;;;;;;10406136;28;20059;-59
2022/02/24 14:54:05;;;;;;;17.15;2.70;;;17.30;64.30;;;;;;10420581;28;20040;-59
2022/02/24 14:59:06;;;;;;;16.10;2.25;;;17.30;64.30;;;;;;10392497;28;20029;-60
2022/02/24 15:04:06;;;;;;;21.13;3.22;;;17.30;64.30;;;;;;10414823;28;20037;-60
2022/02/24 15:09:07;;;;;;;13.25;2.45;;;17.40;65.00;;;;;;10410462;28;20057;-59
2022/02/24 15:14:08;;;;;;;14.73;2.95;;;17.40;65.00;;;;;;10410904;28;20025;-60
2022/02/24 15:19:09;;;;;;;25.48;3.22;;;17.40;64.70;;;;;;10404871;28;20025;-58
2022/02/24 15:24:10;;;;;;;17.77;2.72;;;17.40;65.10;;;;;;10407027;28;20040;-59
2022/02/24 15:29:11;;;;;;;20.55;3.33;;;17.40;64.40;;;;;;10402595;28;20034;-58
2022/02/24 15:34:12;;;;;;;11.50;2.53;;;17.50;65.20;;;;;;10385722;28;20053;-58
2022/02/24 15:39:14;;;;;;;7.10;2.25;;;17.60;65.00;;;;;;10401708;28;20496;-60
2022/02/24 15:44:15;;;;;;;17.48;2.92;;;17.60;65.00;;;;;;10385216;28;20029;-62
2022/02/24 15:49:17;;;;;;;15.90;2.60;;;17.50;65.30;;;;;;10403437;28;20025;-60
2022/02/24 15:54:17;;;;;;;14.48;2.85;;;17.40;65.10;;;;;;10386441;28;20029;-60
2022/02/24 15:59:18;;;;;;;18.85;3.92;;;17.40;65.30;;;;;;10411087;28;20029;-59
2022/02/24 16:04:19;;;;;;;28.70;3.15;;;17.30;65.60;;;;;;10407218;28;20528;-59
2022/02/24 16:09:21;;;;;;;22.33;3.80;;;17.30;65.60;;;;;;10407988;28;20112;-59
2022/02/24 16:14:22;;;;;;;25.20;4.00;;;17.20;66.30;;;;;;10422991;28;20129;-61
2022/02/24 16:19:23;;;;;;;10.48;2.88;;;17.10;66.40;;;;;;10406424;28;20083;-59
2022/02/24 16:24:23;;;;;;;15.57;2.75;;;17.20;65.90;;;;;;10409555;28;20025;-58
2022/02/24 16:29:24;;;;;;;17.42;5.78;;;17.30;65.60;;;;;;10409363;28;20026;-60
2022/02/24 16:34:27;;;;;;;10.93;3.22;;;17.30;66.10;;;;;;10407381;28;20059;-58
2022/02/24 16:39:32;;;;;;;13.35;3.58;;;17.30;65.10;;;;;;10387526;28;20053;-59
2022/02/24 16:44:40;;;;;;;8.02;3.42;;;17.20;65.10;;;;;;10408518;28;20041;-60
2022/02/24 16:49:42;;;;;;;10.93;3.00;;;17.30;64.00;;;;;;10405444;28;20029;-59
2022/02/24 16:54:44;;;;;;;12.07;2.78;;;17.20;63.30;;;;;;10406007;28;20045;-59
2022/02/24 16:59:45;;;;;;;12.18;2.60;;;17.30;62.90;;;;;;10421985;28;20481;-58
2022/02/24 17:04:46;;;;;;;8.48;2.50;;;17.60;61.70;;;;;;10411116;28;20045;-60
2022/02/24 17:09:47;;;;;;;5.97;1.85;;;17.60;62.60;;;;;;10405960;28;20120;-58
2022/02/24 17:14:48;;;;;;;9.73;1.90;;;17.90;63.90;;;;;;10418578;28;20512;-58
2022/02/24 17:19:48;;;;;;;11.85;2.80;;;17.80;62.60;;;;;;10417256;28;20056;-57
2022/02/24 17:24:49;;;;;;;6.75;1.90;;;17.80;62.50;;;;;;10416747;28;20030;-57
2022/02/24 17:29:50;;;;;;;8.63;1.50;;;17.80;63.40;;;;;;10417045;28;20060;-59
2022/02/24 17:34:51;;;;;;;9.52;2.10;;;17.80;63.80;;;;;;10414462;28;20426;-59
2022/02/24 17:39:52;;;;;;;10.38;2.08;;;17.70;62.80;;;;;;10415949;28;20047;-58
2022/02/24 17:44:52;;;;;;;16.98;3.08;;;17.50;63.60;;;;;;10417589;28;20030;-58
2022/02/24 17:49:53;;;;;;;13.68;3.35;;;17.50;64.30;;;;;;10398557;28;20028;-58
2022/02/24 17:54:54;;;;;;;11.10;2.00;;;17.50;63.30;;;;;;10417213;28;20038;-58
2022/02/24 17:59:55;;;;;;;16.42;2.60;;;17.50;62.90;;;;;;10416258;28;20025;-58
2022/02/24 18:04:56;;;;;;;14.38;2.72;;;17.60;62.70;;;;;;10412662;28;20061;-58
2022/02/24 18:09:57;;;;;;;17.55;2.55;;;17.60;62.30;;;;;;10414988;28;20410;-60
2022/02/24 18:14:58;;;;;;;11.13;2.10;;;17.60;62.00;;;;;;10398263;28;20040;-59
2022/02/24 18:19:59;;;;;;;7.47;1.83;;;17.60;61.80;;;;;;10414429;28;20112;-58
2022/02/24 18:25:00;;;;;;;10.88;2.20;;;17.60;61.90;;;;;;10419026;28;20038;-59
2022/02/24 18:30:04;;;;;;;5.70;1.70;;;17.70;61.90;;;;;;10413773;28;20032;-57
2022/02/24 18:35:06;;;;;;;7.78;2.05;;;17.80;62.00;;;;;;10410973;28;20056;-60
2022/02/24 18:40:10;;;;;;;8.50;2.13;;;17.80;62.10;;;;;;10393045;28;20413;-60
2022/02/24 18:45:11;;;;;;;6.45;1.80;;;17.70;62.40;;;;;;10393811;28;20037;-58
2022/02/24 18:50:12;;;;;;;9.30;2.17;;;17.70;62.60;;;;;;10404786;28;20087;-59
2022/02/24 18:55:13;;;;;;;7.00;1.80;;;17.60;62.40;;;;;;10404338;28;20398;-59
2022/02/24 19:00:17;;;;;;;5.88;1.48;;;17.50;62.50;;;;;;10399751;28;20033;-59
2022/02/24 19:05:18;;;;;;;5.13;1.35;;;17.60;62.70;;;;;;10397424;28;20056;-59
2022/02/24 19:10:19;;;;;;;5.60;1.17;;;17.60;62.90;;;;;;10400752;28;20524;-59
2022/02/24 19:15:20;;;;;;;6.57;1.42;;;17.60;63.10;;;;;;10406875;28;20036;-61
2022/02/24 19:20:21;;;;;;;6.40;1.23;;;17.60;62.90;;;;;;10421034;28;20056;-61
2022/02/24 19:25:21;;;;;;;6.90;1.77;;;17.60;62.40;;;;;;10412119;28;20033;-61
2022/02/24 19:30:22;;;;;;;7.53;1.10;;;17.60;62.40;;;;;;10428166;28;20083;-61
2022/02/24 19:35:23;;;;;;;4.47;1.15;;;17.70;62.30;;;;;;10411190;28;20049;-61
2022/02/24 19:40:24;;;;;;;4.82;1.00;;;17.70;62.20;;;;;;10411471;28;20029;-61
2022/02/24 19:45:25;;;;;;;4.68;1.23;;;17.60;62.40;;;;;;10405829;28;20065;-62
2022/02/24 19:50:25;;;;;;;6.40;1.10;;;17.70;62.30;;;;;;10411898;28;20113;-61
2022/02/24 19:55:27;;;;;;;4.75;0.93;;;17.70;62.30;;;;;;10411775;28;20092;-60
2022/02/24 20:00:27;;;;;;;6.55;1.23;;;17.70;62.30;;;;;;10418648;28;20127;-61
2022/02/24 20:05:30;;;;;;;3.95;0.80;;;17.70;62.40;;;;;;10395121;28;20025;-60
2022/02/24 20:10:31;;;;;;;4.55;1.48;;;17.70;63.00;;;;;;10411103;28;20026;-61
2022/02/24 20:15:32;;;;;;;3.45;1.15;;;17.70;62.60;;;;;;10406818;28;20112;-61
2022/02/24 20:20:33;;;;;;;3.22;1.05;;;17.80;62.60;;;;;;10400770;28;20037;-59
2022/02/24 20:25:35;;;;;;;3.97;1.15;;;17.70;62.90;;;;;;10411234;28;20541;-58
2022/02/24 20:30:36;;;;;;;6.60;1.60;;;17.70;63.00;;;;;;10409351;28;20487;-59
2022/02/24 20:35:39;;;;;;;5.38;1.20;;;17.60;63.10;;;;;;10418148;28;20041;-58
2022/02/24 20:40:41;;;;;;;2.85;1.25;;;17.70;63.30;;;;;;10410218;28;20383;-59
2022/02/24 20:45:43;;;;;;;3.08;1.02;;;17.60;63.00;;;;;;10417615;28;20120;-59
2022/02/24 20:50:45;;;;;;;6.93;1.73;;;17.60;63.20;;;;;;10392508;28;20462;-59
2022/02/24 20:55:45;;;;;;;2.97;1.17;;;17.50;63.20;;;;;;10434890;28;20485;-58
2022/02/24 21:00:46;;;;;;;4.60;0.93;;;17.60;62.90;;;;;;10433023;28;20034;-59
2022/02/24 21:05:47;;;;;;;1.90;0.75;;;17.70;62.70;;;;;;10419204;28;20083;-60
2022/02/24 21:10:48;;;;;;;1.70;0.75;;;17.70;62.70;;;;;;10434403;28;20040;-59
2022/02/24 21:15:49;;;;;;;2.33;0.80;;;17.70;62.60;;;;;;10417216;28;20037;-60
2022/02/24 21:20:49;;;;;;;2.72;0.95;;;17.70;62.60;;;;;;10418350;28;20072;-58
2022/02/24 21:25:51;;;;;;;1.45;0.60;;;17.70;62.30;;;;;;10432487;28;20034;-59
2022/02/24 21:30:52;;;;;;;4.13;0.95;;;17.70;62.20;;;;;;10433782;28;20045;-59
2022/02/24 21:35:53;;;;;;;2.00;0.88;;;17.70;62.30;;;;;;10432938;28;20052;-59
2022/02/24 21:40:54;;;;;;;2.47;1.05;;;17.70;62.00;;;;;;10431689;28;20044;-59
2022/02/24 21:45:55;;;;;;;2.80;0.90;;;17.70;62.10;;;;;;10408800;28;20038;-58
2022/02/24 21:50:55;;;;;;;2.10;0.77;;;17.80;62.10;;;;;;10417367;28;20037;-59
2022/02/24 21:55:57;;;;;;;2.25;0.65;;;17.70;62.00;;;;;;10431951;28;20039;-59
2022/02/24 22:00:58;;;;;;;2.17;0.52;;;17.70;61.90;;;;;;10439641;28;20072;-58
2022/02/24 22:05:58;;;;;;;2.33;0.80;;;17.80;61.80;;;;;;10401415;28;20059;-59
2022/02/24 22:10:59;;;;;;;4.15;1.05;;;17.70;61.80;;;;;;10414237;28;20025;-59
2022/02/24 22:16:00;;;;;;;2.05;0.63;;;17.80;61.70;;;;;;10414817;28;20113;-59
2022/02/24 22:21:00;;;;;;;1.45;0.60;;;17.70;61.70;;;;;;10413813;28;20452;-59
2022/02/24 22:26:01;;;;;;;2.15;0.60;;;17.70;61.70;;;;;;10414576;28;20033;-59
2022/02/24 22:31:02;;;;;;;1.45;0.75;;;17.80;61.70;;;;;;10413389;28;20029;-59
2022/02/24 22:36:04;;;;;;;0.80;0.52;;;17.70;61.80;;;;;;10430601;28;20045;-58
2022/02/24 22:41:05;;;;;;;2.45;0.70;;;17.80;61.60;;;;;;10418735;28;20032;-58
2022/02/24 22:46:06;;;;;;;2.47;0.80;;;17.70;61.80;;;;;;10413805;28;20040;-57
2022/02/24 22:51:07;;;;;;;3.17;0.70;;;17.70;61.70;;;;;;10413714;28;20022;-58
2022/02/24 22:56:07;;;;;;;1.25;0.50;;;17.70;61.60;;;;;;10414775;28;20540;-57
2022/02/24 23:01:14;;;;;;;1.33;0.60;;;17.60;61.90;;;;;;10437067;28;20121;-58
2022/02/24 23:06:15;;;;;;;1.80;0.50;;;17.60;61.90;;;;;;10413483;28;20033;-58
2022/02/24 23:11:16;;;;;;;1.92;0.60;;;17.70;61.70;;;;;;10411504;28;20398;-58
2022/02/24 23:16:16;;;;;;;1.92;0.60;;;17.70;61.70;;;;;;10413953;28;20108;-58
2022/02/24 23:21:17;;;;;;;2.28;0.82;;;17.80;61.60;;;;;;10413861;28;20040;-58
2022/02/24 23:26:18;;;;;;;0.55;0.43;;;17.70;61.70;;;;;;10412527;28;20033;-58
2022/02/24 23:31:22;;;;;;;1.55;0.63;;;17.70;61.50;;;;;;10385367;28;20060;-58
2022/02/24 23:36:24;;;;;;;1.33;0.60;;;17.70;61.60;;;;;;10412276;28;20046;-58
2022/02/24 23:41:25;;;;;;;2.10;0.88;;;17.70;61.50;;;;;;10412315;28;20068;-58
2022/02/24 23:46:25;;;;;;;1.45;0.50;;;17.70;61.50;;;;;;10428629;28;20077;-57
2022/02/24 23:51:26;;;;;;;1.75;0.55;;;17.70;61.50;;;;;;10411749;28;20034;-58
2022/02/24 23:56:27;;;;;;;0.85;0.40;;;17.70;61.40;;;;;;10411460;28;20120;-58
